sensor_id;sensor_type;location;lat;lon;timestamp;temperature;humidity
32400;DHT22;45045;45.440;9.178;2023-07-29T00:01:11;28.70;92.90
32400;DHT22;45045;45.440;9.178;2023-07-29T00:03:37;28.70;92.80
32400;DHT22;45045;45.440;9.178;2023-07-29T00:06:03;28.70;92.80
32400;DHT22;45045;45.440;9.178;2023-07-29T00:08:28;28.60;92.90
32400;DHT22;45045;45.440;9.178;2023-07-29T00:10:54;28.60;92.80
32400;DHT22;45045;45.440;9.178;2023-07-29T00:13:20;28.60;92.90
32400;DHT22;45045;45.440;9.178;2023-07-29T00:15:45;28.60;92.90
32400;DHT22;45045;45.440;9.178;2023-07-29T00:18:11;28.70;92.80
32400;DHT22;45045;45.440;9.178;2023-07-29T00:20:36;28.60;92.80
32400;DHT22;45045;45.440;9.178;2023-07-29T00:23:02;28.60;93.00
32400;DHT22;45045;45.440;9.178;2023-07-29T00:25:28;28.70;92.90
32400;DHT22;45045;45.440;9.178;2023-07-29T00:27:56;28.60;92.90
32400;DHT22;45045;45.440;9.178;2023-07-29T00:30:22;28.70;93.10
32400;DHT22;45045;45.440;9.178;2023-07-29T00:32:48;28.60;92.90
32400;DHT22;45045;45.440;9.178;2023-07-29T00:35:13;28.60;92.90
32400;DHT22;45045;45.440;9.178;2023-07-29T00:37:39;28.60;93.10
32400;DHT22;45045;45.440;9.178;2023-07-29T00:40:14;28.60;93.00
32400;DHT22;45045;45.440;9.178;2023-07-29T00:42:42;28.50;93.10
32400;DHT22;45045;45.440;9.178;2023-07-29T00:45:09;28.60;93.00
32400;DHT22;45045;45.440;9.178;2023-07-29T00:47:35;28.50;93.10
32400;DHT22;45045;45.440;9.178;2023-07-29T00:50:01;28.50;93.00
32400;DHT22;45045;45.440;9.178;2023-07-29T00:52:27;28.50;93.20
32400;DHT22;45045;45.440;9.178;2023-07-29T00:54:52;28.60;93.20
32400;DHT22;45045;45.440;9.178;2023-07-29T00:57:19;28.60;93.00
32400;DHT22;45045;45.440;9.178;2023-07-29T00:59:46;28.60;93.00
32400;DHT22;45045;45.440;9.178;2023-07-29T01:02:12;28.50;93.10
32400;DHT22;45045;45.440;9.178;2023-07-29T01:04:38;28.60;93.30
32400;DHT22;45045;45.440;9.178;2023-07-29T01:17:42;28.50;93.10
32400;DHT22;45045;45.440;9.178;2023-07-29T01:20:09;28.50;93.30
32400;DHT22;45045;45.440;9.178;2023-07-29T01:22:37;28.50;93.20
32400;DHT22;45045;45.440;9.178;2023-07-29T01:25:03;28.50;94.00
32400;DHT22;45045;45.440;9.178;2023-07-29T01:27:29;28.50;93.20
32400;DHT22;45045;45.440;9.178;2023-07-29T01:29:57;28.40;93.20
32400;DHT22;45045;45.440;9.178;2023-07-29T01:35:42;28.40;93.30
32400;DHT22;45045;45.440;9.178;2023-07-29T01:38:18;28.50;93.30
32400;DHT22;45045;45.440;9.178;2023-07-29T01:40:48;28.50;93.60
32400;DHT22;45045;45.440;9.178;2023-07-29T01:43:14;28.50;93.40
32400;DHT22;45045;45.440;9.178;2023-07-29T01:45:40;28.40;93.50
32400;DHT22;45045;45.440;9.178;2023-07-29T01:48:07;28.30;93.60
32400;DHT22;45045;45.440;9.178;2023-07-29T01:50:33;28.40;93.60
32400;DHT22;45045;45.440;9.178;2023-07-29T01:52:59;28.40;93.70
32400;DHT22;45045;45.440;9.178;2023-07-29T01:55:25;28.30;93.80
32400;DHT22;45045;45.440;9.178;2023-07-29T01:57:50;28.40;93.80
32400;DHT22;45045;45.440;9.178;2023-07-29T02:00:18;28.40;93.70
32400;DHT22;45045;45.440;9.178;2023-07-29T02:02:43;28.40;93.70
32400;DHT22;45045;45.440;9.178;2023-07-29T02:05:09;28.40;93.70
32400;DHT22;45045;45.440;9.178;2023-07-29T02:07:34;28.40;93.70
32400;DHT22;45045;45.440;9.178;2023-07-29T02:10:00;28.40;93.70
32400;DHT22;45045;45.440;9.178;2023-07-29T02:12:26;28.40;93.70
32400;DHT22;45045;45.440;9.178;2023-07-29T02:14:51;28.40;93.70
32400;DHT22;45045;45.440;9.178;2023-07-29T02:17:17;28.40;93.80
32400;DHT22;45045;45.440;9.178;2023-07-29T02:19:43;28.40;93.90
32400;DHT22;45045;45.440;9.178;2023-07-29T02:22:10;28.30;93.90
32400;DHT22;45045;45.440;9.178;2023-07-29T02:24:36;28.40;93.80
32400;DHT22;45045;45.440;9.178;2023-07-29T02:27:02;28.30;93.80
32400;DHT22;45045;45.440;9.178;2023-07-29T02:29:27;28.30;94.00
32400;DHT22;45045;45.440;9.178;2023-07-29T02:31:53;28.30;94.00
32400;DHT22;45045;45.440;9.178;2023-07-29T02:34:19;28.30;94.00
32400;DHT22;45045;45.440;9.178;2023-07-29T02:36:44;28.30;94.10
32400;DHT22;45045;45.440;9.178;2023-07-29T02:39:11;28.30;94.10
32400;DHT22;45045;45.440;9.178;2023-07-29T02:41:36;28.30;94.10
32400;DHT22;45045;45.440;9.178;2023-07-29T02:44:02;28.30;94.10
32400;DHT22;45045;45.440;9.178;2023-07-29T02:46:28;28.30;94.20
32400;DHT22;45045;45.440;9.178;2023-07-29T02:48:54;28.30;94.30
32400;DHT22;45045;45.440;9.178;2023-07-29T02:51:20;28.30;94.30
32400;DHT22;45045;45.440;9.178;2023-07-29T02:53:45;28.30;94.80
32400;DHT22;45045;45.440;9.178;2023-07-29T02:56:11;28.20;94.30
32400;DHT22;45045;45.440;9.178;2023-07-29T02:58:37;28.20;94.60
32400;DHT22;45045;45.440;9.178;2023-07-29T03:01:04;28.20;94.50
32400;DHT22;45045;45.440;9.178;2023-07-29T03:03:30;28.30;94.60
32400;DHT22;45045;45.440;9.178;2023-07-29T03:06:03;28.20;94.70
32400;DHT22;45045;45.440;9.178;2023-07-29T03:08:29;28.30;94.80
32400;DHT22;45045;45.440;9.178;2023-07-29T03:10:55;28.20;94.70
32400;DHT22;45045;45.440;9.178;2023-07-29T03:13:21;28.10;95.20
32400;DHT22;45045;45.440;9.178;2023-07-29T03:15:47;28.20;95.50
32400;DHT22;45045;45.440;9.178;2023-07-29T03:18:12;28.10;95.60
32400;DHT22;45045;45.440;9.178;2023-07-29T03:20:38;28.10;95.80
32400;DHT22;45045;45.440;9.178;2023-07-29T03:23:04;28.10;95.30
32400;DHT22;45045;45.440;9.178;2023-07-29T03:25:29;28.00;96.90
32400;DHT22;45045;45.440;9.178;2023-07-29T03:27:55;28.00;95.60
32400;DHT22;45045;45.440;9.178;2023-07-29T03:30:21;28.10;95.60
32400;DHT22;45045;45.440;9.178;2023-07-29T03:32:48;28.10;96.30
32400;DHT22;45045;45.440;9.178;2023-07-29T03:35:15;28.10;95.60
32400;DHT22;45045;45.440;9.178;2023-07-29T03:37:40;28.10;95.60
32400;DHT22;45045;45.440;9.178;2023-07-29T03:40:07;28.10;95.60
32400;DHT22;45045;45.440;9.178;2023-07-29T03:42:33;28.10;95.60
32400;DHT22;45045;45.440;9.178;2023-07-29T03:44:58;28.10;95.60
32400;DHT22;45045;45.440;9.178;2023-07-29T03:47:24;28.10;95.60
32400;DHT22;45045;45.440;9.178;2023-07-29T03:49:50;28.20;95.80
32400;DHT22;45045;45.440;9.178;2023-07-29T03:52:15;28.10;95.70
32400;DHT22;45045;45.440;9.178;2023-07-29T03:54:41;28.10;95.80
32400;DHT22;45045;45.440;9.178;2023-07-29T03:57:07;28.10;95.80
32400;DHT22;45045;45.440;9.178;2023-07-29T03:59:32;28.10;95.80
32400;DHT22;45045;45.440;9.178;2023-07-29T04:01:58;28.20;95.90
32400;DHT22;45045;45.440;9.178;2023-07-29T04:04:24;28.10;95.90
32400;DHT22;45045;45.440;9.178;2023-07-29T04:06:49;28.20;95.90
32400;DHT22;45045;45.440;9.178;2023-07-29T04:09:15;28.20;96.20
32400;DHT22;45045;45.440;9.178;2023-07-29T04:11:41;28.10;95.90
32400;DHT22;45045;45.440;9.178;2023-07-29T04:14:06;28.20;96.10
32400;DHT22;45045;45.440;9.178;2023-07-29T04:16:32;28.10;96.30
32400;DHT22;45045;45.440;9.178;2023-07-29T04:18:57;28.10;96.60
32400;DHT22;45045;45.440;9.178;2023-07-29T04:21:23;28.00;96.30
32400;DHT22;45045;45.440;9.178;2023-07-29T04:23:49;28.10;96.30
32400;DHT22;45045;45.440;9.178;2023-07-29T04:26:14;28.10;96.40
32400;DHT22;45045;45.440;9.178;2023-07-29T04:28:40;28.00;96.60
32400;DHT22;45045;45.440;9.178;2023-07-29T04:31:05;28.10;96.90
32400;DHT22;45045;45.440;9.178;2023-07-29T04:33:31;28.00;96.60
32400;DHT22;45045;45.440;9.178;2023-07-29T04:35:57;28.00;96.80
32400;DHT22;45045;45.440;9.178;2023-07-29T04:38:27;28.00;96.80
32400;DHT22;45045;45.440;9.178;2023-07-29T04:40:53;28.00;97.10
32400;DHT22;45045;45.440;9.178;2023-07-29T04:43:18;28.00;96.90
32400;DHT22;45045;45.440;9.178;2023-07-29T04:45:44;28.00;97.40
32400;DHT22;45045;45.440;9.178;2023-07-29T04:48:11;28.00;97.00
32400;DHT22;45045;45.440;9.178;2023-07-29T04:50:36;28.00;96.90
32400;DHT22;45045;45.440;9.178;2023-07-29T04:53:02;28.00;97.70
32400;DHT22;45045;45.440;9.178;2023-07-29T04:55:27;28.10;97.10
32400;DHT22;45045;45.440;9.178;2023-07-29T04:57:55;27.90;98.80
32400;DHT22;45045;45.440;9.178;2023-07-29T05:00:20;27.90;98.80
32400;DHT22;45045;45.440;9.178;2023-07-29T05:02:46;27.90;98.60
32400;DHT22;45045;45.440;9.178;2023-07-29T05:05:11;27.90;98.10
32400;DHT22;45045;45.440;9.178;2023-07-29T05:07:37;28.00;97.80
32400;DHT22;45045;45.440;9.178;2023-07-29T05:10:03;28.00;98.70
32400;DHT22;45045;45.440;9.178;2023-07-29T05:12:28;28.00;98.30
32400;DHT22;45045;45.440;9.178;2023-07-29T05:14:54;27.90;98.40
32400;DHT22;45045;45.440;9.178;2023-07-29T05:17:21;27.50;99.90
32400;DHT22;45045;45.440;9.178;2023-07-29T05:19:47;27.10;99.90
32400;DHT22;45045;45.440;9.178;2023-07-29T05:22:12;27.30;99.90
32400;DHT22;45045;45.440;9.178;2023-07-29T05:24:38;27.50;99.90
32400;DHT22;45045;45.440;9.178;2023-07-29T05:27:04;27.50;99.90
32400;DHT22;45045;45.440;9.178;2023-07-29T05:29:29;27.70;99.90
32400;DHT22;45045;45.440;9.178;2023-07-29T05:31:55;27.60;99.90
32400;DHT22;45045;45.440;9.178;2023-07-29T05:34:22;27.50;99.90
32400;DHT22;45045;45.440;9.178;2023-07-29T05:36:47;27.40;99.90
32400;DHT22;45045;45.440;9.178;2023-07-29T05:39:13;27.10;99.90
32400;DHT22;45045;45.440;9.178;2023-07-29T05:41:39;27.00;99.90
32400;DHT22;45045;45.440;9.178;2023-07-29T05:44:04;27.00;99.90
32400;DHT22;45045;45.440;9.178;2023-07-29T05:46:30;26.70;99.90
32400;DHT22;45045;45.440;9.178;2023-07-29T05:48:56;26.30;99.90
32400;DHT22;45045;45.440;9.178;2023-07-29T05:51:21;26.40;99.90
32400;DHT22;45045;45.440;9.178;2023-07-29T05:53:47;26.40;99.90
32400;DHT22;45045;45.440;9.178;2023-07-29T05:56:13;26.50;99.90
32400;DHT22;45045;45.440;9.178;2023-07-29T05:58:39;26.50;99.90
32400;DHT22;45045;45.440;9.178;2023-07-29T06:01:04;26.60;99.90
32400;DHT22;45045;45.440;9.178;2023-07-29T06:03:30;26.60;99.90
32400;DHT22;45045;45.440;9.178;2023-07-29T06:05:55;26.40;99.90
32400;DHT22;45045;45.440;9.178;2023-07-29T06:08:21;26.40;99.90
32400;DHT22;45045;45.440;9.178;2023-07-29T06:10:47;26.40;99.90
32400;DHT22;45045;45.440;9.178;2023-07-29T06:13:12;26.80;99.90
32400;DHT22;45045;45.440;9.178;2023-07-29T06:15:38;26.70;99.90
32400;DHT22;45045;45.440;9.178;2023-07-29T06:18:03;26.60;99.90
32400;DHT22;45045;45.440;9.178;2023-07-29T06:20:29;26.60;99.90
32400;DHT22;45045;45.440;9.178;2023-07-29T06:22:55;26.70;99.90
32400;DHT22;45045;45.440;9.178;2023-07-29T06:25:20;27.00;99.90
32400;DHT22;45045;45.440;9.178;2023-07-29T06:27:47;27.00;99.90
32400;DHT22;45045;45.440;9.178;2023-07-29T06:30:13;27.20;99.90
32400;DHT22;45045;45.440;9.178;2023-07-29T06:32:39;27.40;99.90
32400;DHT22;45045;45.440;9.178;2023-07-29T06:35:04;27.50;99.90
32400;DHT22;45045;45.440;9.178;2023-07-29T06:37:30;27.30;99.90
32400;DHT22;45045;45.440;9.178;2023-07-29T06:39:56;27.30;99.90
32400;DHT22;45045;45.440;9.178;2023-07-29T06:42:21;27.40;99.90
32400;DHT22;45045;45.440;9.178;2023-07-29T06:44:47;27.60;99.90
32400;DHT22;45045;45.440;9.178;2023-07-29T06:47:13;27.70;99.90
32400;DHT22;45045;45.440;9.178;2023-07-29T06:49:38;27.40;99.90
32400;DHT22;45045;45.440;9.178;2023-07-29T06:52:04;27.50;99.90
32400;DHT22;45045;45.440;9.178;2023-07-29T06:54:30;27.30;99.90
32400;DHT22;45045;45.440;9.178;2023-07-29T06:56:56;27.40;99.90
32400;DHT22;45045;45.440;9.178;2023-07-29T06:59:21;27.30;99.90
32400;DHT22;45045;45.440;9.178;2023-07-29T07:01:47;27.40;99.90
32400;DHT22;45045;45.440;9.178;2023-07-29T07:04:13;27.70;99.90
32400;DHT22;45045;45.440;9.178;2023-07-29T07:06:38;27.70;99.90
32400;DHT22;45045;45.440;9.178;2023-07-29T07:09:04;27.80;99.90
32400;DHT22;45045;45.440;9.178;2023-07-29T07:11:29;27.80;99.90
32400;DHT22;45045;45.440;9.178;2023-07-29T07:13:55;27.80;99.90
32400;DHT22;45045;45.440;9.178;2023-07-29T07:16:21;27.80;99.90
32400;DHT22;45045;45.440;9.178;2023-07-29T07:18:46;27.80;99.90
32400;DHT22;45045;45.440;9.178;2023-07-29T07:21:12;27.80;99.90
32400;DHT22;45045;45.440;9.178;2023-07-29T07:23:39;27.90;99.90
32400;DHT22;45045;45.440;9.178;2023-07-29T07:26:04;28.00;99.90
32400;DHT22;45045;45.440;9.178;2023-07-29T07:28:30;28.00;99.90
32400;DHT22;45045;45.440;9.178;2023-07-29T07:30:56;28.00;99.90
32400;DHT22;45045;45.440;9.178;2023-07-29T07:33:22;28.00;99.90
32400;DHT22;45045;45.440;9.178;2023-07-29T07:35:48;27.90;99.90
32400;DHT22;45045;45.440;9.178;2023-07-29T07:38:13;28.00;99.90
32400;DHT22;45045;45.440;9.178;2023-07-29T07:40:39;28.00;99.90
32400;DHT22;45045;45.440;9.178;2023-07-29T07:43:05;27.90;99.90
32400;DHT22;45045;45.440;9.178;2023-07-29T07:45:32;28.00;99.90
32400;DHT22;45045;45.440;9.178;2023-07-29T07:47:58;28.00;99.90
32400;DHT22;45045;45.440;9.178;2023-07-29T07:50:24;28.20;99.90
32400;DHT22;45045;45.440;9.178;2023-07-29T07:52:50;28.20;99.90
32400;DHT22;45045;45.440;9.178;2023-07-29T07:55:15;28.10;99.90
32400;DHT22;45045;45.440;9.178;2023-07-29T07:57:41;28.20;99.90
32400;DHT22;45045;45.440;9.178;2023-07-29T08:00:07;28.40;99.90
32400;DHT22;45045;45.440;9.178;2023-07-29T08:02:33;28.30;99.90
32400;DHT22;45045;45.440;9.178;2023-07-29T08:04:58;28.30;99.90
32400;DHT22;45045;45.440;9.178;2023-07-29T08:07:24;28.30;99.90
32400;DHT22;45045;45.440;9.178;2023-07-29T08:09:49;28.30;99.90
32400;DHT22;45045;45.440;9.178;2023-07-29T08:12:16;28.40;99.90
32400;DHT22;45045;45.440;9.178;2023-07-29T08:14:42;28.50;99.90
32400;DHT22;45045;45.440;9.178;2023-07-29T08:17:07;28.40;99.90
32400;DHT22;45045;45.440;9.178;2023-07-29T08:19:33;28.50;99.90
32400;DHT22;45045;45.440;9.178;2023-07-29T08:22:03;28.50;99.90
32400;DHT22;45045;45.440;9.178;2023-07-29T08:24:28;28.40;99.90
32400;DHT22;45045;45.440;9.178;2023-07-29T08:26:54;28.60;99.90
32400;DHT22;45045;45.440;9.178;2023-07-29T08:29:20;28.50;99.90
32400;DHT22;45045;45.440;9.178;2023-07-29T08:31:45;28.70;99.90
32400;DHT22;45045;45.440;9.178;2023-07-29T08:34:11;28.70;99.90
32400;DHT22;45045;45.440;9.178;2023-07-29T08:36:36;28.70;99.90
32400;DHT22;45045;45.440;9.178;2023-07-29T08:39:02;28.80;99.90
32400;DHT22;45045;45.440;9.178;2023-07-29T08:44:35;29.10;99.90
32400;DHT22;45045;45.440;9.178;2023-07-29T08:47:03;29.10;99.40
32400;DHT22;45045;45.440;9.178;2023-07-29T08:49:29;29.20;99.90
32400;DHT22;45045;45.440;9.178;2023-07-29T08:51:57;29.10;99.90
32400;DHT22;45045;45.440;9.178;2023-07-29T08:54:23;29.20;99.80
32400;DHT22;45045;45.440;9.178;2023-07-29T08:56:49;29.20;99.90
32400;DHT22;45045;45.440;9.178;2023-07-29T08:59:16;29.10;99.90
32400;DHT22;45045;45.440;9.178;2023-07-29T09:01:43;29.00;99.50
32400;DHT22;45045;45.440;9.178;2023-07-29T09:04:09;29.10;99.90
32400;DHT22;45045;45.440;9.178;2023-07-29T09:06:35;29.00;99.20
32400;DHT22;45045;45.440;9.178;2023-07-29T09:09:01;29.10;99.30
32400;DHT22;45045;45.440;9.178;2023-07-29T09:11:28;29.10;99.90
32400;DHT22;45045;45.440;9.178;2023-07-29T09:13:54;29.20;99.80
32400;DHT22;45045;45.440;9.178;2023-07-29T09:16:23;29.30;99.70
32400;DHT22;45045;45.440;9.178;2023-07-29T09:18:49;29.40;99.40
32400;DHT22;45045;45.440;9.178;2023-07-29T09:21:17;29.50;99.40
32400;DHT22;45045;45.440;9.178;2023-07-29T09:23:44;29.60;99.30
32400;DHT22;45045;45.440;9.178;2023-07-29T09:26:10;29.70;99.20
32400;DHT22;45045;45.440;9.178;2023-07-29T09:28:37;29.60;99.40
32400;DHT22;45045;45.440;9.178;2023-07-29T09:31:03;29.70;99.20
32400;DHT22;45045;45.440;9.178;2023-07-29T09:33:33;29.60;99.30
32400;DHT22;45045;45.440;9.178;2023-07-29T09:36:00;29.70;99.10
32400;DHT22;45045;45.440;9.178;2023-07-29T09:38:27;29.80;99.70
32400;DHT22;45045;45.440;9.178;2023-07-29T09:40:55;29.90;99.90
32400;DHT22;45045;45.440;9.178;2023-07-29T09:43:26;30.00;99.90
32400;DHT22;45045;45.440;9.178;2023-07-29T09:45:54;29.90;99.90
32400;DHT22;45045;45.440;9.178;2023-07-29T09:48:23;29.90;99.90
32400;DHT22;45045;45.440;9.178;2023-07-29T09:50:48;30.00;99.30
32400;DHT22;45045;45.440;9.178;2023-07-29T09:53:14;30.10;99.10
32400;DHT22;45045;45.440;9.178;2023-07-29T09:55:46;30.10;99.60
32400;DHT22;45045;45.440;9.178;2023-07-29T09:58:13;30.10;99.40
32400;DHT22;45045;45.440;9.178;2023-07-29T10:00:39;30.20;99.00
32400;DHT22;45045;45.440;9.178;2023-07-29T10:03:06;30.10;99.00
32400;DHT22;45045;45.440;9.178;2023-07-29T10:05:32;30.20;97.50
32400;DHT22;45045;45.440;9.178;2023-07-29T10:08:00;30.00;97.30
32400;DHT22;45045;45.440;9.178;2023-07-29T10:10:27;29.90;98.40
32400;DHT22;45045;45.440;9.178;2023-07-29T10:12:54;30.10;98.30
32400;DHT22;45045;45.440;9.178;2023-07-29T10:15:21;30.10;97.90
32400;DHT22;45045;45.440;9.178;2023-07-29T10:17:47;30.10;97.80
32400;DHT22;45045;45.440;9.178;2023-07-29T10:20:13;30.20;97.90
32400;DHT22;45045;45.440;9.178;2023-07-29T10:22:40;30.30;97.70
32400;DHT22;45045;45.440;9.178;2023-07-29T10:25:18;30.30;97.70
32400;DHT22;45045;45.440;9.178;2023-07-29T10:27:56;30.40;96.90
32400;DHT22;45045;45.440;9.178;2023-07-29T10:30:24;30.40;97.10
32400;DHT22;45045;45.440;9.178;2023-07-29T10:32:50;30.30;97.00
32400;DHT22;45045;45.440;9.178;2023-07-29T10:35:16;30.40;97.10
32400;DHT22;45045;45.440;9.178;2023-07-29T10:37:42;30.30;96.70
32400;DHT22;45045;45.440;9.178;2023-07-29T10:40:10;30.00;97.20
32400;DHT22;45045;45.440;9.178;2023-07-29T10:42:37;30.30;96.90
32400;DHT22;45045;45.440;9.178;2023-07-29T10:45:21;30.50;96.60
32400;DHT22;45045;45.440;9.178;2023-07-29T10:47:48;30.30;96.60
32400;DHT22;45045;45.440;9.178;2023-07-29T10:50:18;30.20;97.00
32400;DHT22;45045;45.440;9.178;2023-07-29T10:52:51;30.50;96.80
32400;DHT22;45045;45.440;9.178;2023-07-29T10:55:27;30.80;96.60
32400;DHT22;45045;45.440;9.178;2023-07-29T10:58:14;30.90;95.70
32400;DHT22;45045;45.440;9.178;2023-07-29T11:00:44;31.00;95.90
32400;DHT22;45045;45.440;9.178;2023-07-29T11:03:12;30.80;95.50
32400;DHT22;45045;45.440;9.178;2023-07-29T11:08:21;30.60;95.80
32400;DHT22;45045;45.440;9.178;2023-07-29T11:11:01;30.50;95.90
32400;DHT22;45045;45.440;9.178;2023-07-29T11:13:28;30.90;96.60
32400;DHT22;45045;45.440;9.178;2023-07-29T11:15:55;31.20;96.60
32400;DHT22;45045;45.440;9.178;2023-07-29T11:18:21;31.40;96.00
32400;DHT22;45045;45.440;9.178;2023-07-29T11:20:47;31.20;95.10
32400;DHT22;45045;45.440;9.178;2023-07-29T11:23:14;31.10;95.20
32400;DHT22;45045;45.440;9.178;2023-07-29T11:25:40;31.40;95.90
32400;DHT22;45045;45.440;9.178;2023-07-29T11:28:05;31.60;94.00
32400;DHT22;45045;45.440;9.178;2023-07-29T11:30:31;31.60;93.90
32400;DHT22;45045;45.440;9.178;2023-07-29T11:32:59;31.50;94.10
32400;DHT22;45045;45.440;9.178;2023-07-29T11:35:24;31.30;94.60
32400;DHT22;45045;45.440;9.178;2023-07-29T11:37:51;31.30;94.20
32400;DHT22;45045;45.440;9.178;2023-07-29T11:40:19;31.30;94.00
32400;DHT22;45045;45.440;9.178;2023-07-29T11:42:46;31.20;93.80
32400;DHT22;45045;45.440;9.178;2023-07-29T11:45:13;31.40;93.20
32400;DHT22;45045;45.440;9.178;2023-07-29T11:47:38;31.70;93.00
32400;DHT22;45045;45.440;9.178;2023-07-29T11:50:09;31.40;93.00
32400;DHT22;45045;45.440;9.178;2023-07-29T11:52:41;31.20;93.70
32400;DHT22;45045;45.440;9.178;2023-07-29T11:55:07;31.40;92.80
32400;DHT22;45045;45.440;9.178;2023-07-29T11:57:37;31.70;91.90
32400;DHT22;45045;45.440;9.178;2023-07-29T12:00:06;31.80;91.40
32400;DHT22;45045;45.440;9.178;2023-07-29T12:02:33;32.00;90.80
32400;DHT22;45045;45.440;9.178;2023-07-29T12:05:01;32.00;91.20
32400;DHT22;45045;45.440;9.178;2023-07-29T12:07:28;32.00;91.40
32400;DHT22;45045;45.440;9.178;2023-07-29T12:09:54;32.20;90.60
32400;DHT22;45045;45.440;9.178;2023-07-29T12:12:22;32.20;90.40
32400;DHT22;45045;45.440;9.178;2023-07-29T12:14:48;31.80;90.80
32400;DHT22;45045;45.440;9.178;2023-07-29T12:17:14;31.90;91.20
32400;DHT22;45045;45.440;9.178;2023-07-29T12:19:41;32.10;91.00
32400;DHT22;45045;45.440;9.178;2023-07-29T12:22:09;32.30;90.00
32400;DHT22;45045;45.440;9.178;2023-07-29T12:24:39;32.40;89.50
32400;DHT22;45045;45.440;9.178;2023-07-29T12:27:09;32.50;89.70
32400;DHT22;45045;45.440;9.178;2023-07-29T12:29:40;32.50;89.40
32400;DHT22;45045;45.440;9.178;2023-07-29T12:32:06;32.50;89.10
32400;DHT22;45045;45.440;9.178;2023-07-29T12:34:32;32.30;88.90
32400;DHT22;45045;45.440;9.178;2023-07-29T12:36:59;32.10;89.40
32400;DHT22;45045;45.440;9.178;2023-07-29T12:39:29;31.90;89.70
32400;DHT22;45045;45.440;9.178;2023-07-29T12:41:56;31.70;90.10
32400;DHT22;45045;45.440;9.178;2023-07-29T12:44:24;32.20;88.00
32400;DHT22;45045;45.440;9.178;2023-07-29T12:46:50;32.30;86.60
32400;DHT22;45045;45.440;9.178;2023-07-29T12:49:16;32.60;85.50
32400;DHT22;45045;45.440;9.178;2023-07-29T12:51:41;32.00;88.40
32400;DHT22;45045;45.440;9.178;2023-07-29T12:54:07;32.00;88.10
32400;DHT22;45045;45.440;9.178;2023-07-29T12:56:33;31.80;89.00
32400;DHT22;45045;45.440;9.178;2023-07-29T12:59:00;32.10;88.10
32400;DHT22;45045;45.440;9.178;2023-07-29T13:01:27;32.20;87.60
32400;DHT22;45045;45.440;9.178;2023-07-29T13:03:52;31.90;88.30
32400;DHT22;45045;45.440;9.178;2023-07-29T13:06:18;32.30;86.80
32400;DHT22;45045;45.440;9.178;2023-07-29T13:08:44;32.00;87.60
32400;DHT22;45045;45.440;9.178;2023-07-29T13:11:11;32.10;86.90
32400;DHT22;45045;45.440;9.178;2023-07-29T13:13:36;32.10;87.90
32400;DHT22;45045;45.440;9.178;2023-07-29T13:16:02;32.00;88.60
32400;DHT22;45045;45.440;9.178;2023-07-29T13:18:28;32.00;87.30
32400;DHT22;45045;45.440;9.178;2023-07-29T13:20:54;32.30;86.30
32400;DHT22;45045;45.440;9.178;2023-07-29T13:23:21;32.50;85.50
32400;DHT22;45045;45.440;9.178;2023-07-29T13:25:46;32.20;86.80
32400;DHT22;45045;45.440;9.178;2023-07-29T13:28:12;32.20;86.90
32400;DHT22;45045;45.440;9.178;2023-07-29T13:30:39;32.60;86.30
32400;DHT22;45045;45.440;9.178;2023-07-29T13:33:05;32.90;85.20
32400;DHT22;45045;45.440;9.178;2023-07-29T13:35:31;32.80;84.20
32400;DHT22;45045;45.440;9.178;2023-07-29T13:37:57;32.70;86.00
32400;DHT22;45045;45.440;9.178;2023-07-29T13:40:22;32.80;84.90
32400;DHT22;45045;45.440;9.178;2023-07-29T13:42:48;33.00;84.10
32400;DHT22;45045;45.440;9.178;2023-07-29T13:45:14;33.00;83.60
32400;DHT22;45045;45.440;9.178;2023-07-29T13:47:39;33.00;83.60
32400;DHT22;45045;45.440;9.178;2023-07-29T13:50:06;32.90;83.70
32400;DHT22;45045;45.440;9.178;2023-07-29T13:52:33;32.90;84.60
32400;DHT22;45045;45.440;9.178;2023-07-29T13:54:59;32.80;84.40
32400;DHT22;45045;45.440;9.178;2023-07-29T13:57:24;32.50;85.50
32400;DHT22;45045;45.440;9.178;2023-07-29T13:59:50;32.70;85.40
32400;DHT22;45045;45.440;9.178;2023-07-29T14:02:16;32.70;85.10
32400;DHT22;45045;45.440;9.178;2023-07-29T14:04:41;32.30;86.60
32400;DHT22;45045;45.440;9.178;2023-07-29T14:07:07;32.70;86.40
32400;DHT22;45045;45.440;9.178;2023-07-29T14:09:32;32.80;85.00
32400;DHT22;45045;45.440;9.178;2023-07-29T14:11:58;32.60;85.10
32400;DHT22;45045;45.440;9.178;2023-07-29T14:14:24;32.50;86.20
32400;DHT22;45045;45.440;9.178;2023-07-29T14:16:49;32.50;85.50
32400;DHT22;45045;45.440;9.178;2023-07-29T14:19:15;32.50;86.30
32400;DHT22;45045;45.440;9.178;2023-07-29T14:21:41;32.70;86.80
32400;DHT22;45045;45.440;9.178;2023-07-29T14:24:06;32.80;85.80
32400;DHT22;45045;45.440;9.178;2023-07-29T14:26:32;32.80;85.50
32400;DHT22;45045;45.440;9.178;2023-07-29T14:28:58;32.80;84.80
32400;DHT22;45045;45.440;9.178;2023-07-29T14:31:23;32.80;86.70
32400;DHT22;45045;45.440;9.178;2023-07-29T14:33:49;32.90;85.50
32400;DHT22;45045;45.440;9.178;2023-07-29T14:36:15;32.80;85.90
32400;DHT22;45045;45.440;9.178;2023-07-29T14:38:41;32.90;86.40
32400;DHT22;45045;45.440;9.178;2023-07-29T14:41:07;32.90;86.20
32400;DHT22;45045;45.440;9.178;2023-07-29T14:43:33;32.90;85.20
32400;DHT22;45045;45.440;9.178;2023-07-29T14:45:59;32.70;85.70
32400;DHT22;45045;45.440;9.178;2023-07-29T14:48:25;32.70;86.30
32400;DHT22;45045;45.440;9.178;2023-07-29T14:50:50;32.80;88.50
32400;DHT22;45045;45.440;9.178;2023-07-29T14:53:16;32.90;84.70
32400;DHT22;45045;45.440;9.178;2023-07-29T14:55:42;32.80;86.50
32400;DHT22;45045;45.440;9.178;2023-07-29T14:58:07;32.70;86.20
32400;DHT22;45045;45.440;9.178;2023-07-29T15:00:33;32.90;86.50
32400;DHT22;45045;45.440;9.178;2023-07-29T15:02:59;33.00;85.70
32400;DHT22;45045;45.440;9.178;2023-07-29T15:05:24;32.90;84.70
32400;DHT22;45045;45.440;9.178;2023-07-29T15:07:50;33.00;84.50
32400;DHT22;45045;45.440;9.178;2023-07-29T15:10:16;32.90;84.40
32400;DHT22;45045;45.440;9.178;2023-07-29T15:12:42;32.60;85.80
32400;DHT22;45045;45.440;9.178;2023-07-29T15:15:10;32.60;85.70
32400;DHT22;45045;45.440;9.178;2023-07-29T15:17:35;32.70;85.30
32400;DHT22;45045;45.440;9.178;2023-07-29T15:20:02;32.70;85.40
32400;DHT22;45045;45.440;9.178;2023-07-29T15:22:28;32.40;86.20
32400;DHT22;45045;45.440;9.178;2023-07-29T15:24:53;32.40;86.60
32400;DHT22;45045;45.440;9.178;2023-07-29T15:27:19;32.20;86.70
32400;DHT22;45045;45.440;9.178;2023-07-29T15:29:45;32.00;86.90
32400;DHT22;45045;45.440;9.178;2023-07-29T15:32:11;31.90;88.10
32400;DHT22;45045;45.440;9.178;2023-07-29T15:34:36;32.20;86.50
32400;DHT22;45045;45.440;9.178;2023-07-29T15:37:02;32.10;86.70
32400;DHT22;45045;45.440;9.178;2023-07-29T15:39:28;32.20;86.20
32400;DHT22;45045;45.440;9.178;2023-07-29T15:41:54;32.00;86.30
32400;DHT22;45045;45.440;9.178;2023-07-29T15:44:20;32.40;84.40